sensor_id;sensor_type;location;lat;lon;timestamp;P1;durP1;ratioP1;P2;durP2;ratioP2
50483;SDS011;36409;52.168;20.878;2022-10-16T00:00:19;12.70;;;8.07;;
50483;SDS011;36409;52.168;20.878;2022-10-16T00:03:08;15.77;;;8.37;;
50483;SDS011;36409;52.168;20.878;2022-10-16T00:05:41;14.70;;;8.03;;
50483;SDS011;36409;52.168;20.878;2022-10-16T00:08:11;10.97;;;8.43;;
50483;SDS011;36409;52.168;20.878;2022-10-16T00:10:40;11.47;;;7.57;;
50483;SDS011;36409;52.168;20.878;2022-10-16T00:13:09;12.40;;;7.90;;
50483;SDS011;36409;52.168;20.878;2022-10-16T00:15:37;11.70;;;8.07;;
50483;SDS011;36409;52.168;20.878;2022-10-16T00:18:06;13.67;;;7.83;;
50483;SDS011;36409;52.168;20.878;2022-10-16T00:20:35;13.20;;;9.03;;
50483;SDS011;36409;52.168;20.878;2022-10-16T00:23:04;11.23;;;7.93;;
50483;SDS011;36409;52.168;20.878;2022-10-16T00:25:32;12.13;;;7.90;;
50483;SDS011;36409;52.168;20.878;2022-10-16T00:28:01;11.03;;;7.77;;
50483;SDS011;36409;52.168;20.878;2022-10-16T00:30:29;14.83;;;7.97;;
50483;SDS011;36409;52.168;20.878;2022-10-16T00:33:00;11.00;;;7.93;;
50483;SDS011;36409;52.168;20.878;2022-10-16T00:35:29;10.70;;;8.13;;
50483;SDS011;36409;52.168;20.878;2022-10-16T00:37:58;15.73;;;8.60;;
50483;SDS011;36409;52.168;20.878;2022-10-16T00:40:26;18.50;;;8.50;;
50483;SDS011;36409;52.168;20.878;2022-10-16T00:42:55;14.53;;;9.30;;
50483;SDS011;36409;52.168;20.878;2022-10-16T00:45:24;18.80;;;8.53;;
50483;SDS011;36409;52.168;20.878;2022-10-16T00:47:53;17.73;;;8.87;;
50483;SDS011;36409;52.168;20.878;2022-10-16T00:50:24;14.65;;;8.90;;
50483;SDS011;36409;52.168;20.878;2022-10-16T00:52:56;14.87;;;9.67;;
50483;SDS011;36409;52.168;20.878;2022-10-16T00:55:26;13.70;;;9.37;;
50483;SDS011;36409;52.168;20.878;2022-10-16T00:57:57;13.50;;;8.85;;
50483;SDS011;36409;52.168;20.878;2022-10-16T01:00:26;16.60;;;9.57;;
50483;SDS011;36409;52.168;20.878;2022-10-16T01:02:56;14.30;;;9.40;;
50483;SDS011;36409;52.168;20.878;2022-10-16T01:05:27;16.40;;;10.30;;
50483;SDS011;36409;52.168;20.878;2022-10-16T01:08:03;16.47;;;9.43;;
50483;SDS011;36409;52.168;20.878;2022-10-16T01:10:40;16.93;;;9.70;;
50483;SDS011;36409;52.168;20.878;2022-10-16T01:13:21;20.87;;;9.23;;
50483;SDS011;36409;52.168;20.878;2022-10-16T01:15:54;23.17;;;9.97;;
50483;SDS011;36409;52.168;20.878;2022-10-16T01:18:30;16.10;;;9.57;;
50483;SDS011;36409;52.168;20.878;2022-10-16T01:21:06;14.27;;;9.47;;
50483;SDS011;36409;52.168;20.878;2022-10-16T01:23:43;17.73;;;9.90;;
50483;SDS011;36409;52.168;20.878;2022-10-16T01:26:28;15.08;;;9.50;;
50483;SDS011;36409;52.168;20.878;2022-10-16T01:29:06;16.80;;;10.07;;
50483;SDS011;36409;52.168;20.878;2022-10-16T01:31:38;14.80;;;10.60;;
50483;SDS011;36409;52.168;20.878;2022-10-16T01:34:13;14.83;;;9.47;;
50483;SDS011;36409;52.168;20.878;2022-10-16T01:36:46;16.77;;;9.83;;
50483;SDS011;36409;52.168;20.878;2022-10-16T01:39:19;16.27;;;9.83;;
50483;SDS011;36409;52.168;20.878;2022-10-16T01:41:54;13.70;;;9.70;;
50483;SDS011;36409;52.168;20.878;2022-10-16T01:44:28;16.70;;;10.35;;
50483;SDS011;36409;52.168;20.878;2022-10-16T01:46:59;17.60;;;10.60;;
50483;SDS011;36409;52.168;20.878;2022-10-16T01:49:30;15.10;;;9.60;;
50483;SDS011;36409;52.168;20.878;2022-10-16T01:52:02;17.20;;;10.65;;
50483;SDS011;36409;52.168;20.878;2022-10-16T01:54:35;19.67;;;11.60;;
50483;SDS011;36409;52.168;20.878;2022-10-16T01:57:05;15.93;;;11.07;;
50483;SDS011;36409;52.168;20.878;2022-10-16T01:59:38;19.97;;;11.67;;
50483;SDS011;36409;52.168;20.878;2022-10-16T02:02:11;18.32;;;11.18;;
50483;SDS011;36409;52.168;20.878;2022-10-16T02:04:43;17.43;;;10.97;;
50483;SDS011;36409;52.168;20.878;2022-10-16T02:07:13;16.50;;;10.90;;
50483;SDS011;36409;52.168;20.878;2022-10-16T02:09:43;16.13;;;11.23;;
50483;SDS011;36409;52.168;20.878;2022-10-16T02:12:14;16.73;;;11.63;;
50483;SDS011;36409;52.168;20.878;2022-10-16T02:14:46;21.70;;;11.67;;
50483;SDS011;36409;52.168;20.878;2022-10-16T02:17:17;18.70;;;11.53;;
50483;SDS011;36409;52.168;20.878;2022-10-16T02:19:47;20.43;;;11.53;;
50483;SDS011;36409;52.168;20.878;2022-10-16T02:22:19;18.67;;;12.13;;
50483;SDS011;36409;52.168;20.878;2022-10-16T02:24:55;18.77;;;12.53;;
50483;SDS011;36409;52.168;20.878;2022-10-16T02:27:27;16.40;;;11.13;;
50483;SDS011;36409;52.168;20.878;2022-10-16T02:30:04;17.57;;;11.83;;
50483;SDS011;36409;52.168;20.878;2022-10-16T02:32:37;18.47;;;11.93;;
50483;SDS011;36409;52.168;20.878;2022-10-16T02:35:09;16.70;;;12.10;;
50483;SDS011;36409;52.168;20.878;2022-10-16T02:37:39;16.50;;;11.97;;
50483;SDS011;36409;52.168;20.878;2022-10-16T02:40:10;23.07;;;12.37;;
50483;SDS011;36409;52.168;20.878;2022-10-16T02:42:39;17.10;;;12.33;;
50483;SDS011;36409;52.168;20.878;2022-10-16T02:45:09;16.03;;;12.03;;
50483;SDS011;36409;52.168;20.878;2022-10-16T02:47:38;20.27;;;11.73;;
50483;SDS011;36409;52.168;20.878;2022-10-16T02:50:07;19.17;;;11.73;;
50483;SDS011;36409;52.168;20.878;2022-10-16T02:52:36;18.43;;;12.47;;
50483;SDS011;36409;52.168;20.878;2022-10-16T02:55:05;19.30;;;12.20;;
50483;SDS011;36409;52.168;20.878;2022-10-16T02:57:35;18.57;;;11.70;;
50483;SDS011;36409;52.168;20.878;2022-10-16T03:00:05;18.83;;;11.80;;
50483;SDS011;36409;52.168;20.878;2022-10-16T03:02:35;20.20;;;12.33;;
50483;SDS011;36409;52.168;20.878;2022-10-16T03:05:04;20.17;;;12.20;;
50483;SDS011;36409;52.168;20.878;2022-10-16T03:07:35;20.63;;;12.67;;
50483;SDS011;36409;52.168;20.878;2022-10-16T03:10:04;18.55;;;11.85;;
50483;SDS011;36409;52.168;20.878;2022-10-16T03:12:34;23.50;;;12.07;;
50483;SDS011;36409;52.168;20.878;2022-10-16T03:15:03;20.10;;;12.17;;
50483;SDS011;36409;52.168;20.878;2022-10-16T03:17:33;17.87;;;11.50;;
50483;SDS011;36409;52.168;20.878;2022-10-16T03:20:04;19.40;;;12.90;;
50483;SDS011;36409;52.168;20.878;2022-10-16T03:22:34;20.87;;;12.20;;
50483;SDS011;36409;52.168;20.878;2022-10-16T03:25:03;19.83;;;12.20;;
50483;SDS011;36409;52.168;20.878;2022-10-16T03:27:32;20.17;;;11.97;;
50483;SDS011;36409;52.168;20.878;2022-10-16T03:30:01;22.40;;;12.27;;
50483;SDS011;36409;52.168;20.878;2022-10-16T03:32:30;19.57;;;13.07;;
50483;SDS011;36409;52.168;20.878;2022-10-16T03:34:58;23.83;;;13.00;;
50483;SDS011;36409;52.168;20.878;2022-10-16T03:37:27;19.53;;;12.77;;
50483;SDS011;36409;52.168;20.878;2022-10-16T03:40:00;18.50;;;12.13;;
50483;SDS011;36409;52.168;20.878;2022-10-16T03:42:29;20.23;;;12.40;;
50483;SDS011;36409;52.168;20.878;2022-10-16T03:44:58;17.90;;;12.30;;
50483;SDS011;36409;52.168;20.878;2022-10-16T03:47:28;19.17;;;12.30;;
50483;SDS011;36409;52.168;20.878;2022-10-16T03:50:01;17.87;;;11.53;;
50483;SDS011;36409;52.168;20.878;2022-10-16T03:52:31;22.87;;;12.10;;
50483;SDS011;36409;52.168;20.878;2022-10-16T03:55:01;20.60;;;11.73;;
50483;SDS011;36409;52.168;20.878;2022-10-16T03:57:31;20.70;;;12.00;;
50483;SDS011;36409;52.168;20.878;2022-10-16T04:00:00;19.45;;;12.10;;
50483;SDS011;36409;52.168;20.878;2022-10-16T04:02:41;17.93;;;12.20;;
50483;SDS011;36409;52.168;20.878;2022-10-16T04:05:10;21.00;;;11.77;;
50483;SDS011;36409;52.168;20.878;2022-10-16T04:07:39;18.00;;;12.43;;
50483;SDS011;36409;52.168;20.878;2022-10-16T04:10:08;19.63;;;12.70;;
50483;SDS011;36409;52.168;20.878;2022-10-16T04:12:38;18.97;;;12.87;;
50483;SDS011;36409;52.168;20.878;2022-10-16T04:15:07;19.70;;;12.90;;
50483;SDS011;36409;52.168;20.878;2022-10-16T04:17:37;20.03;;;13.43;;
50483;SDS011;36409;52.168;20.878;2022-10-16T04:20:07;23.73;;;13.20;;
50483;SDS011;36409;52.168;20.878;2022-10-16T04:22:36;19.97;;;12.83;;
50483;SDS011;36409;52.168;20.878;2022-10-16T04:25:06;20.60;;;13.80;;
50483;SDS011;36409;52.168;20.878;2022-10-16T04:27:36;19.37;;;12.43;;
50483;SDS011;36409;52.168;20.878;2022-10-16T04:30:12;16.67;;;12.10;;
50483;SDS011;36409;52.168;20.878;2022-10-16T04:32:47;20.03;;;12.37;;
50483;SDS011;36409;52.168;20.878;2022-10-16T04:35:16;20.70;;;13.20;;
50483;SDS011;36409;52.168;20.878;2022-10-16T04:37:46;25.57;;;14.27;;
50483;SDS011;36409;52.168;20.878;2022-10-16T04:40:15;18.30;;;13.17;;
50483;SDS011;36409;52.168;20.878;2022-10-16T04:42:48;23.87;;;13.63;;
50483;SDS011;36409;52.168;20.878;2022-10-16T04:45:19;17.63;;;11.90;;
50483;SDS011;36409;52.168;20.878;2022-10-16T04:47:47;19.67;;;12.83;;
50483;SDS011;36409;52.168;20.878;2022-10-16T04:50:16;19.87;;;14.47;;
50483;SDS011;36409;52.168;20.878;2022-10-16T04:53:01;19.40;;;13.43;;
50483;SDS011;36409;52.168;20.878;2022-10-16T04:55:30;20.97;;;14.03;;
50483;SDS011;36409;52.168;20.878;2022-10-16T04:57:59;22.13;;;14.53;;
50483;SDS011;36409;52.168;20.878;2022-10-16T05:00:30;24.40;;;13.97;;
50483;SDS011;36409;52.168;20.878;2022-10-16T05:02:58;22.73;;;13.70;;
50483;SDS011;36409;52.168;20.878;2022-10-16T05:05:28;21.83;;;13.60;;
50483;SDS011;36409;52.168;20.878;2022-10-16T05:07:56;23.93;;;14.10;;
50483;SDS011;36409;52.168;20.878;2022-10-16T05:10:25;24.93;;;14.03;;
50483;SDS011;36409;52.168;20.878;2022-10-16T05:12:54;21.13;;;14.47;;
50483;SDS011;36409;52.168;20.878;2022-10-16T05:15:22;24.63;;;15.03;;
50483;SDS011;36409;52.168;20.878;2022-10-16T05:17:53;24.30;;;13.10;;
50483;SDS011;36409;52.168;20.878;2022-10-16T05:20:22;20.97;;;13.87;;
50483;SDS011;36409;52.168;20.878;2022-10-16T05:22:53;23.43;;;14.57;;
50483;SDS011;36409;52.168;20.878;2022-10-16T05:25:22;20.60;;;14.27;;
50483;SDS011;36409;52.168;20.878;2022-10-16T05:27:53;21.10;;;14.47;;
50483;SDS011;36409;52.168;20.878;2022-10-16T05:30:22;26.40;;;14.93;;
50483;SDS011;36409;52.168;20.878;2022-10-16T05:32:51;27.83;;;15.97;;
50483;SDS011;36409;52.168;20.878;2022-10-16T05:35:22;23.27;;;14.43;;
50483;SDS011;36409;52.168;20.878;2022-10-16T05:37:51;21.83;;;15.23;;
50483;SDS011;36409;52.168;20.878;2022-10-16T05:40:24;21.57;;;14.47;;
50483;SDS011;36409;52.168;20.878;2022-10-16T05:42:55;21.20;;;14.87;;
50483;SDS011;36409;52.168;20.878;2022-10-16T05:45:28;20.00;;;14.43;;
50483;SDS011;36409;52.168;20.878;2022-10-16T05:47:58;21.97;;;14.27;;
50483;SDS011;36409;52.168;20.878;2022-10-16T05:50:27;19.57;;;14.60;;
50483;SDS011;36409;52.168;20.878;2022-10-16T05:52:56;22.07;;;14.67;;
50483;SDS011;36409;52.168;20.878;2022-10-16T05:55:28;21.70;;;13.93;;
50483;SDS011;36409;52.168;20.878;2022-10-16T05:57:59;21.97;;;14.07;;
50483;SDS011;36409;52.168;20.878;2022-10-16T06:00:30;23.40;;;14.37;;
50483;SDS011;36409;52.168;20.878;2022-10-16T06:02:59;20.70;;;13.93;;
50483;SDS011;36409;52.168;20.878;2022-10-16T06:05:30;25.47;;;15.30;;
50483;SDS011;36409;52.168;20.878;2022-10-16T06:07:59;25.13;;;14.63;;
50483;SDS011;36409;52.168;20.878;2022-10-16T06:10:28;20.33;;;14.53;;
50483;SDS011;36409;52.168;20.878;2022-10-16T06:13:00;18.60;;;13.93;;
50483;SDS011;36409;52.168;20.878;2022-10-16T06:15:31;20.60;;;14.80;;
50483;SDS011;36409;52.168;20.878;2022-10-16T06:18:00;24.70;;;14.63;;
50483;SDS011;36409;52.168;20.878;2022-10-16T06:20:28;20.43;;;14.47;;
50483;SDS011;36409;52.168;20.878;2022-10-16T06:22:57;23.47;;;14.30;;
50483;SDS011;36409;52.168;20.878;2022-10-16T06:25:27;23.10;;;14.33;;
50483;SDS011;36409;52.168;20.878;2022-10-16T06:27:55;23.97;;;13.83;;
50483;SDS011;36409;52.168;20.878;2022-10-16T06:30:24;21.93;;;15.03;;
50483;SDS011;36409;52.168;20.878;2022-10-16T06:32:54;19.77;;;13.77;;
50483;SDS011;36409;52.168;20.878;2022-10-16T06:35:27;20.23;;;13.57;;
50483;SDS011;36409;52.168;20.878;2022-10-16T06:37:56;20.70;;;13.37;;
50483;SDS011;36409;52.168;20.878;2022-10-16T06:40:26;21.20;;;13.33;;
50483;SDS011;36409;52.168;20.878;2022-10-16T06:42:57;20.00;;;12.90;;
50483;SDS011;36409;52.168;20.878;2022-10-16T06:45:28;22.15;;;14.35;;
50483;SDS011;36409;52.168;20.878;2022-10-16T06:47:57;18.30;;;13.50;;
50483;SDS011;36409;52.168;20.878;2022-10-16T06:50:25;22.40;;;13.07;;
50483;SDS011;36409;52.168;20.878;2022-10-16T06:52:54;20.60;;;13.13;;
50483;SDS011;36409;52.168;20.878;2022-10-16T06:55:24;18.70;;;12.97;;
50483;SDS011;36409;52.168;20.878;2022-10-16T06:57:59;21.70;;;13.03;;
50483;SDS011;36409;52.168;20.878;2022-10-16T07:00:27;16.57;;;11.87;;
50483;SDS011;36409;52.168;20.878;2022-10-16T07:02:56;19.53;;;12.93;;
50483;SDS011;36409;52.168;20.878;2022-10-16T07:05:27;20.37;;;13.07;;
50483;SDS011;36409;52.168;20.878;2022-10-16T07:07:57;20.73;;;13.70;;
50483;SDS011;36409;52.168;20.878;2022-10-16T07:10:25;18.27;;;12.77;;
50483;SDS011;36409;52.168;20.878;2022-10-16T07:12:54;19.07;;;13.13;;
50483;SDS011;36409;52.168;20.878;2022-10-16T07:15:23;20.47;;;12.60;;
50483;SDS011;36409;52.168;20.878;2022-10-16T07:17:55;18.15;;;12.60;;
50483;SDS011;36409;52.168;20.878;2022-10-16T07:20:23;26.93;;;13.33;;
50483;SDS011;36409;52.168;20.878;2022-10-16T07:22:52;17.93;;;11.73;;
50483;SDS011;36409;52.168;20.878;2022-10-16T07:25:23;21.20;;;12.13;;
50483;SDS011;36409;52.168;20.878;2022-10-16T07:27:52;19.00;;;11.57;;
50483;SDS011;36409;52.168;20.878;2022-10-16T07:30:23;20.83;;;12.20;;
50483;SDS011;36409;52.168;20.878;2022-10-16T07:32:51;16.30;;;11.60;;
50483;SDS011;36409;52.168;20.878;2022-10-16T07:35:21;21.33;;;11.37;;
50483;SDS011;36409;52.168;20.878;2022-10-16T07:37:50;18.65;;;12.30;;
50483;SDS011;36409;52.168;20.878;2022-10-16T07:40:19;22.75;;;11.70;;
50483;SDS011;36409;52.168;20.878;2022-10-16T07:42:50;18.10;;;11.83;;
50483;SDS011;36409;52.168;20.878;2022-10-16T07:45:19;18.60;;;11.57;;
50483;SDS011;36409;52.168;20.878;2022-10-16T07:47:47;17.10;;;10.93;;
50483;SDS011;36409;52.168;20.878;2022-10-16T07:50:16;15.17;;;9.40;;
50483;SDS011;36409;52.168;20.878;2022-10-16T07:52:45;22.20;;;10.47;;
50483;SDS011;36409;52.168;20.878;2022-10-16T07:55:13;14.30;;;9.57;;
50483;SDS011;36409;52.168;20.878;2022-10-16T07:57:42;14.80;;;10.00;;
50483;SDS011;36409;52.168;20.878;2022-10-16T08:00:11;13.63;;;9.27;;
50483;SDS011;36409;52.168;20.878;2022-10-16T08:02:41;13.70;;;8.83;;
50483;SDS011;36409;52.168;20.878;2022-10-16T08:05:09;16.03;;;9.77;;
50483;SDS011;36409;52.168;20.878;2022-10-16T08:07:38;14.90;;;9.67;;
50483;SDS011;36409;52.168;20.878;2022-10-16T08:10:09;14.77;;;9.10;;
50483;SDS011;36409;52.168;20.878;2022-10-16T08:12:43;12.13;;;9.17;;
50483;SDS011;36409;52.168;20.878;2022-10-16T08:15:12;13.77;;;9.00;;
50483;SDS011;36409;52.168;20.878;2022-10-16T08:17:41;14.37;;;9.80;;
50483;SDS011;36409;52.168;20.878;2022-10-16T08:20:10;16.97;;;9.93;;
50483;SDS011;36409;52.168;20.878;2022-10-16T08:22:39;16.60;;;9.70;;
50483;SDS011;36409;52.168;20.878;2022-10-16T08:25:08;14.47;;;9.00;;
50483;SDS011;36409;52.168;20.878;2022-10-16T08:27:37;16.43;;;9.47;;
50483;SDS011;36409;52.168;20.878;2022-10-16T08:30:06;16.55;;;9.25;;
50483;SDS011;36409;52.168;20.878;2022-10-16T08:32:40;12.23;;;9.10;;
50483;SDS011;36409;52.168;20.878;2022-10-16T08:35:09;13.90;;;9.80;;
50483;SDS011;36409;52.168;20.878;2022-10-16T08:37:38;12.43;;;8.43;;
50483;SDS011;36409;52.168;20.878;2022-10-16T08:40:12;17.13;;;8.93;;
50483;SDS011;36409;52.168;20.878;2022-10-16T08:42:55;15.03;;;9.40;;
50483;SDS011;36409;52.168;20.878;2022-10-16T08:45:37;14.10;;;8.70;;
50483;SDS011;36409;52.168;20.878;2022-10-16T08:48:19;16.63;;;9.50;;
50483;SDS011;36409;52.168;20.878;2022-10-16T08:50:52;12.67;;;8.20;;
50483;SDS011;36409;52.168;20.878;2022-10-16T08:53:23;15.75;;;9.00;;
50483;SDS011;36409;52.168;20.878;2022-10-16T08:55:56;14.50;;;8.03;;
50483;SDS011;36409;52.168;20.878;2022-10-16T08:58:27;16.40;;;9.20;;
50483;SDS011;36409;52.168;20.878;2022-10-16T09:00:58;14.20;;;8.90;;
50483;SDS011;36409;52.168;20.878;2022-10-16T09:03:32;14.23;;;9.17;;
50483;SDS011;36409;52.168;20.878;2022-10-16T09:06:16;12.40;;;8.23;;
50483;SDS011;36409;52.168;20.878;2022-10-16T09:09:01;19.20;;;8.37;;
50483;SDS011;36409;52.168;20.878;2022-10-16T09:11:47;14.63;;;8.23;;
50483;SDS011;36409;52.168;20.878;2022-10-16T09:14:34;13.33;;;8.67;;
50483;SDS011;36409;52.168;20.878;2022-10-16T09:17:18;12.63;;;7.60;;
50483;SDS011;36409;52.168;20.878;2022-10-16T09:20:08;12.13;;;7.70;;
50483;SDS011;36409;52.168;20.878;2022-10-16T09:22:45;12.70;;;7.80;;
50483;SDS011;36409;52.168;20.878;2022-10-16T09:25:15;11.97;;;8.13;;
50483;SDS011;36409;52.168;20.878;2022-10-16T09:27:47;11.90;;;7.57;;
50483;SDS011;36409;52.168;20.878;2022-10-16T09:30:20;13.33;;;8.30;;
50483;SDS011;36409;52.168;20.878;2022-10-16T09:32:51;12.30;;;7.60;;
50483;SDS011;36409;52.168;20.878;2022-10-16T09:35:27;12.03;;;7.83;;
50483;SDS011;36409;52.168;20.878;2022-10-16T09:38:02;11.27;;;8.03;;
50483;SDS011;36409;52.168;20.878;2022-10-16T09:40:36;11.53;;;8.47;;
50483;SDS011;36409;52.168;20.878;2022-10-16T09:43:15;11.73;;;7.80;;
50483;SDS011;36409;52.168;20.878;2022-10-16T09:45:58;13.23;;;8.10;;
50483;SDS011;36409;52.168;20.878;2022-10-16T09:48:30;11.60;;;7.67;;
50483;SDS011;36409;52.168;20.878;2022-10-16T09:51:06;12.40;;;8.23;;
50483;SDS011;36409;52.168;20.878;2022-10-16T09:53:47;12.13;;;8.67;;
50483;SDS011;36409;52.168;20.878;2022-10-16T09:56:26;14.77;;;8.37;;
50483;SDS011;36409;52.168;20.878;2022-10-16T09:58:57;10.87;;;7.43;;
50483;SDS011;36409;52.168;20.878;2022-10-16T10:01:36;11.73;;;8.07;;
50483;SDS011;36409;52.168;20.878;2022-10-16T10:04:08;11.07;;;7.87;;
50483;SDS011;36409;52.168;20.878;2022-10-16T10:06:40;12.27;;;7.80;;
50483;SDS011;36409;52.168;20.878;2022-10-16T10:09:17;12.30;;;7.93;;
50483;SDS011;36409;52.168;20.878;2022-10-16T10:11:49;13.20;;;8.47;;
50483;SDS011;36409;52.168;20.878;2022-10-16T10:14:21;14.30;;;7.97;;
50483;SDS011;36409;52.168;20.878;2022-10-16T10:17:00;10.63;;;8.30;;
50483;SDS011;36409;52.168;20.878;2022-10-16T10:19:41;12.70;;;8.03;;
50483;SDS011;36409;52.168;20.878;2022-10-16T10:22:16;10.93;;;7.80;;
50483;SDS011;36409;52.168;20.878;2022-10-16T10:24:58;17.83;;;8.87;;
50483;SDS011;36409;52.168;20.878;2022-10-16T10:27:43;10.97;;;7.13;;
50483;SDS011;36409;52.168;20.878;2022-10-16T10:30:27;10.70;;;7.85;;
50483;SDS011;36409;52.168;20.878;2022-10-16T10:33:08;13.20;;;8.43;;
50483;SDS011;36409;52.168;20.878;2022-10-16T10:35:48;11.10;;;7.43;;
50483;SDS011;36409;52.168;20.878;2022-10-16T10:38:33;20.77;;;8.57;;
50483;SDS011;36409;52.168;20.878;2022-10-16T10:41:14;11.10;;;8.47;;
50483;SDS011;36409;52.168;20.878;2022-10-16T10:44:11;12.60;;;8.53;;
50483;SDS011;36409;52.168;20.878;2022-10-16T10:46:50;11.03;;;7.50;;
50483;SDS011;36409;52.168;20.878;2022-10-16T10:49:31;12.73;;;7.67;;
50483;SDS011;36409;52.168;20.878;2022-10-16T10:52:25;10.97;;;7.57;;
50483;SDS011;36409;52.168;20.878;2022-10-16T10:55:09;12.33;;;8.30;;
50483;SDS011;36409;52.168;20.878;2022-10-16T10:57:56;11.00;;;7.90;;
50483;SDS011;36409;52.168;20.878;2022-10-16T11:00:44;13.27;;;8.20;;
50483;SDS011;36409;52.168;20.878;2022-10-16T11:03:24;10.97;;;7.93;;
50483;SDS011;36409;52.168;20.878;2022-10-16T11:06:07;11.53;;;7.63;;
50483;SDS011;36409;52.168;20.878;2022-10-16T11:08:42;12.57;;;7.60;;
50483;SDS011;36409;52.168;20.878;2022-10-16T11:11:17;11.87;;;7.67;;
50483;SDS011;36409;52.168;20.878;2022-10-16T11:13:58;13.83;;;8.47;;
50483;SDS011;36409;52.168;20.878;2022-10-16T11:16:39;12.40;;;8.40;;
50483;SDS011;36409;52.168;20.878;2022-10-16T11:19:12;14.07;;;7.60;;
50483;SDS011;36409;52.168;20.878;2022-10-16T11:21:51;12.73;;;7.77;;
50483;SDS011;36409;52.168;20.878;2022-10-16T11:24:31;13.20;;;7.30;;
50483;SDS011;36409;52.168;20.878;2022-10-16T11:27:09;12.53;;;7.90;;
50483;SDS011;36409;52.168;20.878;2022-10-16T11:29:45;11.70;;;8.20;;
50483;SDS011;36409;52.168;20.878;2022-10-16T11:32:20;11.87;;;7.50;;
50483;SDS011;36409;52.168;20.878;2022-10-16T11:34:55;15.60;;;7.90;;
50483;SDS011;36409;52.168;20.878;2022-10-16T11:40:02;14.30;;;7.10;;
50483;SDS011;36409;52.168;20.878;2022-10-16T11:42:48;11.57;;;7.67;;
50483;SDS011;36409;52.168;20.878;2022-10-16T11:45:26;10.33;;;6.73;;
50483;SDS011;36409;52.168;20.878;2022-10-16T11:48:04;13.90;;;7.70;;
50483;SDS011;36409;52.168;20.878;2022-10-16T11:50:43;10.47;;;7.00;;
50483;SDS011;36409;52.168;20.878;2022-10-16T11:53:21;10.33;;;7.20;;
50483;SDS011;36409;52.168;20.878;2022-10-16T11:55:59;11.43;;;7.53;;
50483;SDS011;36409;52.168;20.878;2022-10-16T11:58:29;14.27;;;7.50;;
50483;SDS011;36409;52.168;20.878;2022-10-16T12:01:05;12.30;;;7.10;;
50483;SDS011;36409;52.168;20.878;2022-10-16T12:03:46;11.07;;;7.03;;
50483;SDS011;36409;52.168;20.878;2022-10-16T12:06:27;10.50;;;7.00;;
50483;SDS011;36409;52.168;20.878;2022-10-16T12:09:02;11.67;;;6.60;;
50483;SDS011;36409;52.168;20.878;2022-10-16T12:11:32;13.87;;;7.20;;
50483;SDS011;36409;52.168;20.878;2022-10-16T12:14:05;10.80;;;7.50;;
50483;SDS011;36409;52.168;20.878;2022-10-16T12:17:23;11.13;;;6.97;;
50483;SDS011;36409;52.168;20.878;2022-10-16T12:19:57;11.47;;;7.40;;
50483;SDS011;36409;52.168;20.878;2022-10-16T12:22:29;12.20;;;7.27;;
50483;SDS011;36409;52.168;20.878;2022-10-16T12:24:59;11.67;;;7.00;;
50483;SDS011;36409;52.168;20.878;2022-10-16T12:27:28;11.80;;;7.30;;
50483;SDS011;36409;52.168;20.878;2022-10-16T12:29:59;9.63;;;7.20;;
50483;SDS011;36409;52.168;20.878;2022-10-16T12:32:33;12.25;;;7.70;;
50483;SDS011;36409;52.168;20.878;2022-10-16T12:35:18;10.60;;;7.53;;
50483;SDS011;36409;52.168;20.878;2022-10-16T12:37:49;10.53;;;7.63;;
50483;SDS011;36409;52.168;20.878;2022-10-16T12:40:25;14.33;;;7.00;;
50483;SDS011;36409;52.168;20.878;2022-10-16T12:42:57;11.60;;;7.40;;
50483;SDS011;36409;52.168;20.878;2022-10-16T12:45:27;12.43;;;7.80;;
50483;SDS011;36409;52.168;20.878;2022-10-16T12:47:59;13.90;;;7.57;;
50483;SDS011;36409;52.168;20.878;2022-10-16T12:50:30;8.47;;;6.23;;
50483;SDS011;36409;52.168;20.878;2022-10-16T12:53:02;11.77;;;6.80;;
50483;SDS011;36409;52.168;20.878;2022-10-16T12:55:46;10.87;;;7.40;;
50483;SDS011;36409;52.168;20.878;2022-10-16T12:58:36;11.27;;;6.43;;
50483;SDS011;36409;52.168;20.878;2022-10-16T13:01:23;11.00;;;7.43;;
50483;SDS011;36409;52.168;20.878;2022-10-16T13:07:18;12.53;;;6.87;;
50483;SDS011;36409;52.168;20.878;2022-10-16T13:10:04;10.00;;;7.10;;
50483;SDS011;36409;52.168;20.878;2022-10-16T13:12:51;12.33;;;7.00;;
50483;SDS011;36409;52.168;20.878;2022-10-16T13:15:37;11.40;;;6.80;;
50483;SDS011;36409;52.168;20.878;2022-10-16T13:18:16;11.53;;;6.87;;
50483;SDS011;36409;52.168;20.878;2022-10-16T13:20:56;11.87;;;6.97;;
50483;SDS011;36409;52.168;20.878;2022-10-16T13:23:36;11.95;;;7.62;;
50483;SDS011;36409;52.168;20.878;2022-10-16T13:26:19;11.10;;;6.60;;
50483;SDS011;36409;52.168;20.878;2022-10-16T13:28:59;9.57;;;6.80;;
50483;SDS011;36409;52.168;20.878;2022-10-16T13:31:29;12.37;;;6.80;;
50483;SDS011;36409;52.168;20.878;2022-10-16T13:34:05;9.20;;;6.80;;
50483;SDS011;36409;52.168;20.878;2022-10-16T13:36:43;12.87;;;6.60;;
50483;SDS011;36409;52.168;20.878;2022-10-16T13:41:44;11.80;;;7.23;;
50483;SDS011;36409;52.168;20.878;2022-10-16T13:44:15;11.57;;;6.57;;
50483;SDS011;36409;52.168;20.878;2022-10-16T13:46:58;10.07;;;6.63;;
50483;SDS011;36409;52.168;20.878;2022-10-16T13:49:28;9.77;;;7.00;;
50483;SDS011;36409;52.168;20.878;2022-10-16T13:52:01;11.50;;;6.50;;
50483;SDS011;36409;52.168;20.878;2022-10-16T13:54:31;12.17;;;6.93;;
50483;SDS011;36409;52.168;20.878;2022-10-16T13:57:05;10.30;;;6.87;;
50483;SDS011;36409;52.168;20.878;2022-10-16T13:59:53;10.25;;;7.15;;
50483;SDS011;36409;52.168;20.878;2022-10-16T14:02:25;10.67;;;6.70;;
50483;SDS011;36409;52.168;20.878;2022-10-16T14:04:58;11.87;;;7.53;;
50483;SDS011;36409;52.168;20.878;2022-10-16T14:07:27;11.10;;;7.67;;
50483;SDS011;36409;52.168;20.878;2022-10-16T14:09:59;9.13;;;6.97;;
50483;SDS011;36409;52.168;20.878;2022-10-16T14:12:30;13.83;;;7.67;;
50483;SDS011;36409;52.168;20.878;2022-10-16T14:15:01;12.57;;;7.30;;
50483;SDS011;36409;52.168;20.878;2022-10-16T14:17:31;12.90;;;7.60;;
50483;SDS011;36409;52.168;20.878;2022-10-16T14:20:03;11.13;;;7.10;;
50483;SDS011;36409;52.168;20.878;2022-10-16T14:22:42;13.40;;;8.03;;
50483;SDS011;36409;52.168;20.878;2022-10-16T14:25:23;11.43;;;7.13;;
50483;SDS011;36409;52.168;20.878;2022-10-16T14:27:57;11.77;;;7.10;;
50483;SDS011;36409;52.168;20.878;2022-10-16T14:30:33;10.60;;;7.00;;
50483;SDS011;36409;52.168;20.878;2022-10-16T14:33:04;12.30;;;7.10;;
50483;SDS011;36409;52.168;20.878;2022-10-16T14:35:56;10.47;;;7.20;;
50483;SDS011;36409;52.168;20.878;2022-10-16T14:38:29;10.47;;;7.13;;
50483;SDS011;36409;52.168;20.878;2022-10-16T14:41:00;11.97;;;7.40;;
50483;SDS011;36409;52.168;20.878;2022-10-16T14:43:32;13.70;;;8.10;;
50483;SDS011;36409;52.168;20.878;2022-10-16T14:46:06;15.08;;;7.65;;
50483;SDS011;36409;52.168;20.878;2022-10-16T14:48:59;9.97;;;7.33;;
50483;SDS011;36409;52.168;20.878;2022-10-16T14:51:31;14.47;;;7.73;;
50483;SDS011;36409;52.168;20.878;2022-10-16T14:54:00;13.17;;;7.43;;
50483;SDS011;36409;52.168;20.878;2022-10-16T14:56:32;11.17;;;7.50;;
50483;SDS011;36409;52.168;20.878;2022-10-16T14:59:11;13.00;;;7.20;;